Time;durP1;ratioP1;P1;durP2;ratioP2;P2;SDS_P1;SDS_P2;PMS_P1;PMS_P2;Temp;Humidity;BMP_temperature;BMP_pressure;BME280_temperature;BME280_humidity;BME280_pressure;Samples;Min_cycle;Max_cycle;Signal;HPM_P1;HPM_P2
2023/10/12 00:01:59;;;;;;;6.63;2.47;;;13.80;99.90;;;;;;5004500;28;19918;-81
2023/10/12 00:04:43;;;;;;;8.63;2.97;;;13.70;99.90;;;;;;5016592;28;20041;-76
2023/10/12 00:07:16;;;;;;;9.27;3.40;;;13.60;99.90;;;;;;5013890;28;20523;-79
2023/10/12 00:09:48;;;;;;;9.27;2.85;;;13.60;99.90;;;;;;4996267;28;20477;-80
2023/10/12 00:12:24;;;;;;;12.45;2.92;;;13.50;99.90;;;;;;4970646;28;20048;-79
2023/10/12 00:14:54;;;;;;;9.18;2.88;;;13.50;99.90;;;;;;4996759;28;20140;-81
2023/10/12 00:17:19;;;;;;;6.13;2.92;;;13.50;99.90;;;;;;4997574;28;20046;-81
2023/10/12 00:19:46;;;;;;;9.15;3.35;;;13.50;99.90;;;;;;5006786;28;20128;-80
2023/10/12 00:22:13;;;;;;;9.68;3.28;;;13.50;99.90;;;;;;4996743;28;20076;-80
2023/10/12 00:24:39;;;;;;;7.47;2.40;;;13.50;99.90;;;;;;4980549;28;20034;-81
2023/10/12 00:27:09;;;;;;;8.63;2.72;;;13.50;99.90;;;;;;5013010;28;20038;-81
2023/10/12 00:29:39;;;;;;;11.60;3.25;;;13.50;99.90;;;;;;4996592;28;20497;-82
2023/10/12 00:32:08;;;;;;;8.52;3.28;;;13.40;99.90;;;;;;4997335;28;20392;-82
2023/10/12 00:34:39;;;;;;;7.13;2.58;;;13.40;99.90;;;;;;4996861;28;20038;-82
2023/10/12 00:37:06;;;;;;;12.82;3.35;;;13.30;99.90;;;;;;4996466;28;20095;-81
2023/10/12 00:39:56;;;;;;;10.25;2.90;;;13.20;99.90;;;;;;5012423;28;20084;-80
2023/10/12 00:42:29;;;;;;;8.50;2.85;;;13.10;99.90;;;;;;5012776;28;20056;-80
2023/10/12 00:44:55;;;;;;;9.68;3.40;;;13.00;99.90;;;;;;4996264;28;20045;-83
2023/10/12 00:50:08;;;;;;;10.23;3.75;;;12.80;99.90;;;;;;4999021;28;20042;-83
2023/10/12 00:52:46;;;;;;;10.13;3.40;;;12.80;99.90;;;;;;4997241;28;20042;-83
2023/10/12 00:55:21;;;;;;;7.85;2.83;;;12.80;99.90;;;;;;5010171;28;20046;-82
2023/10/12 00:57:50;;;;;;;7.75;2.95;;;12.80;99.90;;;;;;4976086;28;20065;-83
2023/10/12 01:00:16;;;;;;;7.07;3.00;;;12.80;99.90;;;;;;5012605;28;20046;-80
2023/10/12 01:03:07;;;;;;;10.95;3.45;;;12.80;99.90;;;;;;4996300;28;20050;-81
2023/10/12 01:05:35;;;;;;;13.10;3.15;;;12.80;99.90;;;;;;4998311;28;20045;-79
2023/10/12 01:08:05;;;;;;;12.82;3.22;;;12.80;99.90;;;;;;4994989;28;20056;-80
2023/10/12 01:10:32;;;;;;;9.07;2.90;;;12.80;99.90;;;;;;4995546;28;20049;-80
2023/10/12 01:13:02;;;;;;;12.93;3.22;;;12.70;99.90;;;;;;5012035;28;20089;-79
2023/10/12 01:15:32;;;;;;;12.45;3.05;;;12.70;99.90;;;;;;4980228;28;20483;-79
2023/10/12 01:17:58;;;;;;;12.38;3.58;;;12.70;99.90;;;;;;5012187;28;20129;-80
2023/10/12 01:20:26;;;;;;;12.15;3.10;;;12.70;99.90;;;;;;4995542;28;20120;-79
2023/10/12 01:22:52;;;;;;;16.08;3.45;;;12.70;99.90;;;;;;4996110;28;20050;-79
2023/10/12 01:25:51;;;;;;;13.38;3.20;;;12.70;99.90;;;;;;5011995;28;20061;-80
2023/10/12 01:28:12;;;;;;;13.30;3.75;;;12.70;99.90;;;;;;4991273;28;20050;-80
2023/10/12 01:30:39;;;;;;;31.00;4.95;;;12.70;99.90;;;;;;4996380;28;20050;-82
2023/10/12 01:33:06;;;;;;;11.73;3.88;;;12.60;99.90;;;;;;4995620;28;20057;-80
2023/10/12 01:35:38;;;;;;;16.38;3.78;;;12.70;99.90;;;;;;5013376;28;20053;-80
2023/10/12 01:38:05;;;;;;;;;;;12.70;99.90;;;;;;4998605;28;20049;-81
2023/10/12 01:43:12;;;;;;;14.07;4.07;;;12.60;99.90;;;;;;5003588;28;20406;-80
2023/10/12 01:45:41;;;;;;;16.27;4.15;;;12.70;99.90;;;;;;4989596;28;20397;-80
2023/10/12 01:50:38;;;;;;;13.60;3.95;;;12.60;99.90;;;;;;5011769;28;20042;-79
2023/10/12 01:55:47;;;;;;;16.48;4.80;;;12.60;99.90;;;;;;4995637;28;20042;-79
2023/10/12 01:58:17;;;;;;;12.68;3.95;;;12.50;99.90;;;;;;4994937;28;20089;-80
2023/10/12 02:00:51;;;;;;;16.58;3.92;;;12.50;99.90;;;;;;5011162;28;20076;-80
2023/10/12 02:03:26;;;;;;;14.63;4.18;;;12.50;99.90;;;;;;4995018;28;20130;-81
2023/10/12 02:06:02;;;;;;;16.00;3.88;;;12.50;99.90;;;;;;5011047;28;20073;-80
2023/10/12 02:08:32;;;;;;;20.17;4.18;;;12.50;99.90;;;;;;4994461;28;20041;-80
2023/10/12 02:11:09;;;;;;;29.15;4.97;;;12.50;99.90;;;;;;5010956;28;20044;-82
2023/10/12 02:13:35;;;;;;;19.30;4.43;;;12.50;99.90;;;;;;5011328;28;20409;-82
2023/10/12 02:16:05;;;;;;;14.32;4.95;;;12.50;99.90;;;;;;4994825;28;20069;-78
2023/10/12 02:18:32;;;;;;;12.98;4.10;;;12.50;99.90;;;;;;4994459;28;20073;-79
2023/10/12 02:23:32;;;;;;;16.05;4.55;;;12.50;99.90;;;;;;4995373;28;20425;-79
2023/10/12 02:25:59;;;;;;;13.65;4.20;;;12.50;99.90;;;;;;4995556;28;20168;-80
2023/10/12 02:28:29;;;;;;;14.82;4.63;;;12.40;99.90;;;;;;4994811;28;20050;-81
2023/10/12 02:30:54;;;;;;;26.38;4.95;;;12.40;99.90;;;;;;4995393;28;20050;-81
2023/10/12 02:33:27;;;;;;;24.27;5.20;;;12.40;99.90;;;;;;4994627;28;20416;-80
2023/10/12 02:35:53;;;;;;;18.23;4.90;;;12.40;99.90;;;;;;4995657;28;20041;-80
2023/10/12 02:38:21;;;;;;;22.48;4.53;;;12.40;99.90;;;;;;5010951;28;20120;-81
2023/10/12 02:40:49;;;;;;;14.50;4.90;;;12.30;99.90;;;;;;4959928;28;20050;-83
2023/10/12 02:43:15;;;;;;;19.63;5.10;;;12.30;99.90;;;;;;5009183;28;20045;-83
2023/10/12 02:45:42;;;;;;;24.67;4.75;;;12.30;99.90;;;;;;4983684;28;20051;-82
2023/10/12 02:48:22;;;;;;;25.83;5.22;;;12.30;99.90;;;;;;4991436;28;20086;-82
2023/10/12 02:50:57;;;;;;;21.33;4.88;;;12.40;99.90;;;;;;4996800;28;20052;-81
2023/10/12 02:53:34;;;;;;;14.18;4.85;;;12.30;99.90;;;;;;4995887;28;20038;-83
2023/10/12 02:56:04;;;;;;;16.77;5.07;;;12.40;99.90;;;;;;4994445;28;20045;-82
2023/10/12 02:58:32;;;;;;;24.98;5.68;;;12.30;99.90;;;;;;4995010;28;20092;-81
2023/10/12 03:01:14;;;;;;;16.55;4.72;;;12.40;99.90;;;;;;4959544;28;20038;-82
2023/10/12 03:03:48;;;;;;;23.77;5.20;;;12.30;99.90;;;;;;4994015;28;20046;-82
2023/10/12 03:06:15;;;;;;;;;;;12.30;99.90;;;;;;4995646;28;20504;-81
2023/10/12 03:09:03;;;;;;;12.05;4.85;;;12.30;99.90;;;;;;4994121;28;20303;-82
2023/10/12 03:11:31;;;;;;;21.88;5.82;;;12.30;99.90;;;;;;4981265;28;20401;-81
2023/10/12 03:14:00;;;;;;;26.15;5.68;;;12.30;99.90;;;;;;4994131;28;20046;-80
2023/10/12 03:16:33;;;;;;;18.33;5.10;;;12.30;99.90;;;;;;5010729;28;20038;-80
2023/10/12 03:19:00;;;;;;;13.60;4.75;;;12.30;99.90;;;;;;4978679;28;20266;-78
2023/10/12 03:21:33;;;;;;;28.58;5.97;;;12.30;99.90;;;;;;4993744;28;20073;-78
2023/10/12 03:24:02;;;;;;;15.40;5.32;;;12.30;99.90;;;;;;4994333;28;20189;-79
2023/10/12 03:26:28;;;;;;;17.88;5.25;;;12.30;99.90;;;;;;4994631;28;20416;-80
2023/10/12 03:29:18;;;;;;;15.00;5.10;;;12.30;99.90;;;;;;4994163;28;20505;-81
2023/10/12 03:34:29;;;;;;;23.02;6.65;;;12.30;99.90;;;;;;4998004;28;20046;-81
2023/10/12 03:36:58;;;;;;;18.02;5.97;;;12.30;99.90;;;;;;5014247;28;20057;-81
2023/10/12 03:42:11;;;;;;;19.80;5.68;;;12.30;99.90;;;;;;5013545;28;20505;-82
2023/10/12 03:52:16;;;;;;;21.52;6.80;;;12.20;99.90;;;;;;5013550;28;20042;-81
2023/10/12 03:54:55;;;;;;;18.05;7.03;;;12.10;99.90;;;;;;4997276;28;20041;-81
2023/10/12 03:57:36;;;;;;;26.63;7.13;;;12.20;99.90;;;;;;4998628;28;20038;-81
2023/10/12 04:02:42;;;;;;;26.35;7.38;;;12.20;99.90;;;;;;5013825;28;20049;-81
2023/10/12 04:05:20;;;;;;;21.98;7.15;;;12.20;99.90;;;;;;4997064;28;20038;-81
2023/10/12 04:18:41;;;;;;;22.65;7.60;;;12.20;99.90;;;;;;5013592;28;20080;-82
2023/10/12 04:21:09;;;;;;;19.27;6.60;;;12.20;99.90;;;;;;5000716;28;20464;-80
2023/10/12 04:23:49;;;;;;;18.35;6.78;;;12.20;99.90;;;;;;4996882;28;20049;-80
2023/10/12 04:28:57;;;;;;;20.30;7.07;;;12.20;99.90;;;;;;5006613;28;20091;-80
2023/10/12 04:31:34;;;;;;;16.90;7.65;;;12.20;99.90;;;;;;5001035;28;20519;-80
2023/10/12 04:36:35;;;;;;;22.67;7.47;;;12.20;99.90;;;;;;5013106;28;20073;-80
2023/10/12 04:44:35;;;;;;;29.55;8.43;;;12.20;99.90;;;;;;5012488;28;20543;-80
2023/10/12 04:47:04;;;;;;;25.80;7.97;;;12.20;99.90;;;;;;4999090;28;20077;-79
2023/10/12 04:55:06;;;;;;;24.15;8.88;;;12.20;99.90;;;;;;5012500;28;20046;-78
2023/10/12 04:57:27;;;;;;;24.17;9.43;;;12.20;99.90;;;;;;5012097;28;20126;-79
2023/10/12 05:00:06;;;;;;;26.15;9.30;;;12.20;99.90;;;;;;5012522;28;20493;-79
2023/10/12 05:07:53;;;;;;;24.52;8.30;;;12.20;99.90;;;;;;5012228;28;20046;-79
2023/10/12 05:13:10;;;;;;;31.45;8.88;;;12.20;99.90;;;;;;5011732;28;20129;-79
2023/10/12 05:15:41;;;;;;;27.30;8.85;;;12.30;99.90;;;;;;4992350;28;20469;-78
2023/10/12 05:18:11;;;;;;;18.27;7.97;;;12.30;99.90;;;;;;4993541;28;20045;-79
2023/10/12 05:20:43;;;;;;;24.13;8.70;;;12.30;99.90;;;;;;5011900;28;20497;-79
2023/10/12 05:23:12;;;;;;;25.35;8.20;;;12.20;99.90;;;;;;5012141;28;20097;-79
2023/10/12 05:25:50;;;;;;;24.02;8.15;;;12.20;99.90;;;;;;4995490;28;20564;-79
2023/10/12 05:28:21;;;;;;;27.23;9.73;;;12.20;99.90;;;;;;5011709;28;20057;-79
2023/10/12 05:30:55;;;;;;;24.35;8.45;;;12.20;99.90;;;;;;5012044;28;20048;-79
2023/10/12 05:36:19;;;;;;;21.73;8.00;;;12.20;99.90;;;;;;4996886;28;20404;-79
2023/10/12 05:38:49;;;;;;;23.55;8.18;;;12.20;99.90;;;;;;4981643;28;20068;-78
2023/10/12 05:41:39;;;;;;;25.40;8.98;;;12.30;99.90;;;;;;4995942;28;20382;-79
2023/10/12 05:44:08;;;;;;;21.67;8.45;;;12.20;99.90;;;;;;5011403;28;20132;-79
2023/10/12 05:46:38;;;;;;;25.40;8.65;;;12.20;99.90;;;;;;4995160;28;20081;-80
2023/10/12 05:49:14;;;;;;;24.30;8.13;;;12.20;99.90;;;;;;4995132;28;20054;-79
2023/10/12 05:51:46;;;;;;;21.35;7.47;;;12.20;99.90;;;;;;5011718;28;20060;-79
2023/10/12 05:54:15;;;;;;;28.58;9.52;;;12.20;99.90;;;;;;4995054;28;20099;-78
2023/10/12 05:56:43;;;;;;;16.95;7.18;;;12.20;99.90;;;;;;5011584;28;20045;-78
2023/10/12 05:59:12;;;;;;;23.27;8.45;;;12.20;99.90;;;;;;5011464;28;20048;-78
2023/10/12 06:01:48;;;;;;;30.25;9.88;;;12.20;99.90;;;;;;5011299;28;20037;-78
2023/10/12 06:04:15;;;;;;;18.67;7.57;;;12.20;99.90;;;;;;5011404;28;20045;-78
2023/10/12 06:06:44;;;;;;;21.48;7.85;;;12.10;99.90;;;;;;5011340;28;20034;-78
2023/10/12 06:09:14;;;;;;;29.85;7.82;;;12.20;99.90;;;;;;5010931;28;20496;-79
2023/10/12 06:11:45;;;;;;;23.42;7.53;;;12.10;99.90;;;;;;4985136;28;20125;-78
2023/10/12 06:14:14;;;;;;;29.02;7.80;;;12.10;99.90;;;;;;4981509;28;20050;-78
2023/10/12 06:16:45;;;;;;;16.45;6.43;;;12.10;99.90;;;;;;5011158;28;20070;-78
2023/10/12 06:19:28;;;;;;;21.60;7.57;;;12.10;99.90;;;;;;5010920;28;20034;-78
2023/10/12 06:21:58;;;;;;;23.23;8.15;;;12.00;99.90;;;;;;4994736;28;20548;-78
2023/10/12 06:24:33;;;;;;;21.92;7.10;;;12.00;99.90;;;;;;4992030;28;20405;-78
2023/10/12 06:29:46;;;;;;;24.92;7.10;;;12.00;99.90;;;;;;4985024;28;20078;-78
2023/10/12 06:32:19;;;;;;;26.60;7.68;;;11.90;99.90;;;;;;4991405;28;20410;-79
2023/10/12 06:45:47;;;;;;;16.60;6.65;;;11.80;99.90;;;;;;5011175;28;20129;-79
2023/10/12 06:51:02;;;;;;;21.75;6.68;;;11.70;99.90;;;;;;4996753;28;20053;-79
2023/10/12 06:53:33;;;;;;;21.38;7.20;;;11.80;99.90;;;;;;5010823;28;20492;-79
2023/10/12 06:56:15;;;;;;;25.23;8.25;;;11.70;99.90;;;;;;5010942;28;20397;-78
2023/10/12 06:59:08;;;;;;;22.52;8.02;;;11.70;99.90;;;;;;4985872;28;20041;-78
2023/10/12 07:04:15;;;;;;;23.40;7.93;;;11.70;99.90;;;;;;4996350;28;20053;-78
2023/10/12 07:06:56;;;;;;;25.30;8.13;;;11.70;99.90;;;;;;4997648;28;20050;-79
2023/10/12 07:09:39;;;;;;;28.90;8.80;;;11.70;99.90;;;;;;4999759;28;20034;-77
2023/10/12 07:12:10;;;;;;;37.78;9.75;;;11.70;99.90;;;;;;4999698;28;20052;-78
2023/10/12 07:14:46;;;;;;;19.23;7.47;;;11.70;99.90;;;;;;5014295;28;20057;-78
2023/10/12 07:17:13;;;;;;;23.52;8.48;;;11.80;99.90;;;;;;5014503;28;20049;-78
2023/10/12 07:19:46;;;;;;;18.85;7.50;;;11.80;99.90;;;;;;4998247;28;20041;-78
2023/10/12 07:22:18;;;;;;;23.20;7.45;;;11.80;99.90;;;;;;4998121;28;20038;-78
2023/10/12 07:24:45;;;;;;;21.23;8.17;;;11.90;99.90;;;;;;4998738;28;20041;-78
2023/10/12 07:27:21;;;;;;;27.48;8.70;;;11.90;99.90;;;;;;5010725;28;20070;-78
2023/10/12 07:29:47;;;;;;;29.20;9.00;;;12.00;99.90;;;;;;4997655;28;20125;-78
2023/10/12 07:34:54;;;;;;;23.60;8.13;;;12.10;99.90;;;;;;4998905;28;20413;-78
2023/10/12 07:37:20;;;;;;;25.27;8.18;;;12.00;99.90;;;;;;5013425;28;20034;-78
2023/10/12 07:39:46;;;;;;;29.13;8.90;;;12.00;99.90;;;;;;4977812;28;20124;-78
2023/10/12 07:42:12;;;;;;;16.95;7.25;;;12.10;99.90;;;;;;5006894;28;20038;-78
2023/10/12 07:44:54;;;;;;;17.20;7.15;;;12.10;99.90;;;;;;4997559;28;20080;-78
2023/10/12 07:47:40;;;;;;;21.02;7.47;;;12.10;99.90;;;;;;4997433;28;20044;-79
2023/10/12 07:50:09;;;;;;;24.52;8.30;;;12.20;99.90;;;;;;4987715;28;20056;-78
2023/10/12 07:52:39;;;;;;;26.65;8.88;;;12.20;99.90;;;;;;4997484;28;20121;-77
2023/10/12 07:55:12;;;;;;;24.05;7.97;;;12.40;99.90;;;;;;5013618;28;20061;-78
2023/10/12 07:57:38;;;;;;;21.75;7.18;;;12.50;99.90;;;;;;5013818;28;20551;-78
2023/10/12 08:05:24;;;;;;;20.52;7.05;;;12.70;99.90;;;;;;5013499;28;20081;-78
2023/10/12 08:13:14;;;;;;;12.80;5.43;;;12.70;99.90;;;;;;4992076;28;20089;-79
2023/10/12 08:15:49;;;;;;;18.52;5.70;;;12.70;99.90;;;;;;5011050;28;20049;-80
2023/10/12 08:21:03;;;;;;;13.80;5.00;;;12.80;99.90;;;;;;4999733;28;20062;-79
2023/10/12 08:23:30;;;;;;;10.35;3.95;;;12.80;99.90;;;;;;4980982;28;20129;-80
2023/10/12 08:25:57;;;;;;;20.25;4.60;;;12.80;99.90;;;;;;5015672;28;20560;-79
2023/10/12 08:28:25;;;;;;;12.82;4.50;;;12.90;99.90;;;;;;4996665;28;20049;-79
2023/10/12 08:31:04;;;;;;;13.98;4.63;;;12.80;99.90;;;;;;4999640;28;20073;-78
2023/10/12 08:36:29;;;;;;;17.05;5.03;;;12.90;99.90;;;;;;4984536;28;20509;-78
2023/10/12 08:38:56;;;;;;;13.60;4.43;;;13.00;99.90;;;;;;4991334;28;20045;-79
2023/10/12 08:44:10;;;;;;;13.60;4.35;;;13.00;99.90;;;;;;5030241;28;20042;-79
2023/10/12 08:46:59;;;;;;;13.32;4.03;;;13.10;99.90;;;;;;4986598;28;20038;-79
2023/10/12 08:49:34;;;;;;;16.52;4.25;;;13.10;99.90;;;;;;5000573;28;20042;-79
2023/10/12 08:52:18;;;;;;;13.38;3.83;;;13.10;99.90;;;;;;5002782;28;20053;-79
2023/10/12 08:54:51;;;;;;;15.25;3.67;;;13.00;99.90;;;;;;5012386;28;20109;-78
2023/10/12 08:57:44;;;;;;;14.50;4.22;;;13.10;99.90;;;;;;5012494;28;20041;-78
2023/10/12 09:05:54;;;;;;;14.52;4.40;;;13.00;99.90;;;;;;4997068;28;20508;-79
2023/10/12 09:11:03;;;;;;;14.60;3.53;;;13.00;99.90;;;;;;4980070;28;20422;-78
2023/10/12 09:13:31;;;;;;;11.55;3.63;;;13.00;99.90;;;;;;5012199;28;20038;-78
2023/10/12 09:16:03;;;;;;;8.98;3.55;;;13.00;99.90;;;;;;5011380;28;20069;-79
2023/10/12 09:18:43;;;;;;;13.20;3.33;;;13.10;99.90;;;;;;5012640;28;20109;-79
2023/10/12 09:21:38;;;;;;;9.57;3.88;;;13.10;99.90;;;;;;4983608;28;20057;-78
2023/10/12 09:24:06;;;;;;;15.07;4.15;;;13.10;99.90;;;;;;5011784;28;20100;-78
2023/10/12 09:26:34;;;;;;;8.35;2.97;;;13.10;99.90;;;;;;4995011;28;20049;-79
2023/10/12 09:36:37;;;;;;;9.82;3.58;;;13.10;99.90;;;;;;4995330;28;20559;-79
2023/10/12 09:39:11;;;;;;;19.88;3.63;;;13.10;99.90;;;;;;4992683;28;20034;-79
2023/10/12 09:41:43;;;;;;;14.77;3.65;;;13.10;99.90;;;;;;5011695;28;20072;-79
2023/10/12 09:44:12;;;;;;;15.70;3.65;;;13.20;99.90;;;;;;4995377;28;20037;-78
2023/10/12 09:46:46;;;;;;;12.95;3.25;;;13.20;99.90;;;;;;5011845;28;20409;-78
2023/10/12 09:49:21;;;;;;;10.80;3.45;;;13.20;99.90;;;;;;5011414;28;20042;-78
2023/10/12 09:51:54;;;;;;;17.65;3.42;;;13.30;99.90;;;;;;5011129;28;20030;-78
2023/10/12 09:54:28;;;;;;;18.77;3.92;;;13.30;99.90;;;;;;5011674;28;20041;-78
2023/10/12 09:57:16;;;;;;;30.33;3.55;;;13.40;99.90;;;;;;5011309;28;20116;-78
2023/10/12 09:59:52;;;;;;;13.35;3.40;;;13.50;99.90;;;;;;5011708;28;20050;-78
2023/10/12 10:02:28;;;;;;;10.88;3.45;;;13.50;99.90;;;;;;4979980;28;20044;-79
2023/10/12 10:05:05;;;;;;;16.20;3.60;;;13.50;99.90;;;;;;4994869;28;20081;-78
2023/10/12 10:07:38;;;;;;;13.45;3.65;;;13.50;99.90;;;;;;4998630;28;20100;-78
2023/10/12 10:10:08;;;;;;;16.83;3.30;;;13.60;99.90;;;;;;4995360;28;20085;-78
2023/10/12 10:12:42;;;;;;;10.65;3.03;;;13.60;99.90;;;;;;4960725;28;20126;-78
2023/10/12 10:15:14;;;;;;;10.35;3.28;;;13.70;99.90;;;;;;4988806;28;20041;-78
2023/10/12 10:17:49;;;;;;;8.65;2.80;;;13.70;99.90;;;;;;4998211;28;20073;-78
2023/10/12 10:23:01;;;;;;;8.60;2.80;;;13.70;99.90;;;;;;4998766;28;20464;-78
2023/10/12 10:25:46;;;;;;;11.32;3.55;;;13.60;99.90;;;;;;4994833;28;20038;-78
2023/10/12 10:28:23;;;;;;;15.82;3.40;;;13.60;99.90;;;;;;5010759;28;20077;-78
2023/10/12 10:30:52;;;;;;;10.55;3.08;;;13.50;99.90;;;;;;4994621;28;20068;-78
2023/10/12 10:33:22;;;;;;;9.93;2.88;;;13.60;99.90;;;;;;4995114;28;20509;-78
2023/10/12 10:36:04;;;;;;;10.43;3.10;;;13.60;99.90;;;;;;5010752;28;20046;-78
2023/10/12 10:38:34;;;;;;;11.30;2.92;;;13.60;99.90;;;;;;5010170;28;20450;-78
2023/10/12 10:41:18;;;;;;;14.90;3.15;;;13.60;99.90;;;;;;4998667;28;20085;-78
2023/10/12 10:43:44;;;;;;;13.63;3.15;;;13.60;99.90;;;;;;5015091;28;20117;-78
2023/10/12 10:46:10;;;;;;;14.70;3.10;;;13.60;99.90;;;;;;4966260;28;20037;-78
2023/10/12 10:48:38;;;;;;;11.98;3.08;;;13.60;99.90;;;;;;4998779;28;20038;-78
2023/10/12 10:51:11;;;;;;;13.30;3.42;;;13.60;99.90;;;;;;4998820;28;20042;-78
2023/10/12 10:53:40;;;;;;;16.67;3.42;;;13.60;99.90;;;;;;5015084;28;20076;-79
2023/10/12 10:56:12;;;;;;;17.35;4.03;;;13.60;99.90;;;;;;4998331;28;20515;-78
2023/10/12 10:58:42;;;;;;;12.50;3.25;;;13.60;99.90;;;;;;5014720;28;20053;-78
2023/10/12 11:01:12;;;;;;;16.58;3.50;;;13.50;99.90;;;;;;4999085;28;20117;-78
2023/10/12 11:03:46;;;;;;;17.90;4.00;;;13.50;99.90;;;;;;5014399;28;20038;-78
2023/10/12 11:06:24;;;;;;;10.65;3.20;;;13.50;99.90;;;;;;4998650;28;20054;-77
2023/10/12 11:09:05;;;;;;;8.68;2.80;;;13.50;99.90;;;;;;5014657;28;20038;-78
2023/10/12 11:11:44;;;;;;;13.90;2.95;;;13.50;99.90;;;;;;4998146;28;20052;-78
2023/10/12 11:14:14;;;;;;;11.65;3.38;;;13.50;99.90;;;;;;4985796;28;20096;-78
2023/10/12 11:16:45;;;;;;;11.40;2.80;;;13.60;99.90;;;;;;5007164;28;20113;-78
2023/10/12 11:19:12;;;;;;;12.73;3.10;;;13.60;99.90;;;;;;5014637;28;20092;-78
2023/10/12 11:21:53;;;;;;;10.15;2.67;;;13.60;99.90;;;;;;4998015;28;20084;-78
2023/10/12 11:24:22;;;;;;;12.27;3.05;;;13.60;99.90;;;;;;5014508;28;20033;-78
2023/10/12 11:26:54;;;;;;;8.80;3.00;;;13.70;99.90;;;;;;4972776;28;20125;-78
2023/10/12 11:29:22;;;;;;;15.80;3.42;;;13.60;99.90;;;;;;5013434;28;20052;-78
2023/10/12 11:32:16;;;;;;;12.98;3.22;;;13.60;99.90;;;;;;5005962;28;20434;-78
2023/10/12 11:34:54;;;;;;;13.75;3.10;;;13.70;99.90;;;;;;5001376;28;20052;-78
2023/10/12 11:37:20;;;;;;;10.75;2.78;;;13.80;99.90;;;;;;4998470;28;20481;-78
2023/10/12 11:39:49;;;;;;;12.82;3.13;;;13.80;99.90;;;;;;5013673;28;20124;-78
2023/10/12 11:42:17;;;;;;;12.20;3.88;;;13.80;99.90;;;;;;4997549;28;20038;-78
2023/10/12 11:44:45;;;;;;;9.55;3.03;;;13.90;99.90;;;;;;5013633;28;20073;-78
2023/10/12 11:47:17;;;;;;;11.70;2.85;;;13.90;99.90;;;;;;4997440;28;20053;-78
2023/10/12 11:49:55;;;;;;;7.68;2.50;;;13.90;99.90;;;;;;5013612;28;20096;-77
2023/10/12 11:52:34;;;;;;;10.20;2.92;;;14.00;99.90;;;;;;5012399;28;20612;-78
2023/10/12 11:55:19;;;;;;;10.10;2.90;;;14.00;99.90;;;;;;4984099;28;20049;-78
2023/10/12 11:57:56;;;;;;;8.68;2.60;;;14.00;99.90;;;;;;4997149;28;20084;-78
2023/10/12 12:00:29;;;;;;;15.13;3.33;;;14.00;99.90;;;;;;4997566;28;20049;-78
2023/10/12 12:02:59;;;;;;;9.90;3.00;;;14.00;99.90;;;;;;4987396;28;20129;-78
2023/10/12 12:05:29;;;;;;;12.05;3.00;;;14.00;99.90;;;;;;5011429;28;20034;-77
2023/10/12 12:07:57;;;;;;;10.05;3.03;;;14.00;99.90;;;;;;5013229;28;20527;-78
2023/10/12 12:10:37;;;;;;;14.15;2.97;;;14.00;99.90;;;;;;5013255;28;20088;-78
2023/10/12 12:13:04;;;;;;;12.07;3.00;;;13.90;99.90;;;;;;4979445;28;20045;-77
2023/10/12 12:15:30;;;;;;;9.88;3.58;;;14.00;99.90;;;;;;5010624;28;20030;-78
2023/10/12 12:17:57;;;;;;;10.23;3.42;;;14.00;99.90;;;;;;4996794;28;20504;-77
2023/10/12 12:20:25;;;;;;;15.35;3.33;;;14.00;99.90;;;;;;4996951;28;20561;-78
2023/10/12 12:22:56;;;;;;;11.15;3.00;;;14.00;99.90;;;;;;4996865;28;20109;-78
2023/10/12 12:25:31;;;;;;;10.63;3.05;;;13.90;99.90;;;;;;5013404;28;20452;-78
2023/10/12 12:28:04;;;;;;;10.13;3.10;;;13.90;99.90;;;;;;5011893;28;20519;-78
2023/10/12 12:30:34;;;;;;;11.38;2.72;;;13.90;99.90;;;;;;4997000;28;20445;-78
2023/10/12 12:33:01;;;;;;;15.20;4.03;;;13.80;99.90;;;;;;5012632;28;20425;-78
2023/10/12 12:35:30;;;;;;;15.25;3.50;;;13.80;99.90;;;;;;5013109;28;20041;-77
2023/10/12 12:38:05;;;;;;;12.43;2.97;;;13.80;99.90;;;;;;4996257;28;20049;-78
2023/10/12 12:40:44;;;;;;;12.13;2.70;;;13.80;99.90;;;;;;5012892;28;20041;-78
2023/10/12 12:43:10;;;;;;;9.93;3.20;;;13.80;99.90;;;;;;4998469;28;20559;-78
2023/10/12 12:45:36;;;;;;;13.45;3.33;;;13.80;99.90;;;;;;4980542;28;20037;-77
2023/10/12 12:48:04;;;;;;;9.63;2.60;;;13.80;99.90;;;;;;4996249;28;20049;-78
2023/10/12 12:50:30;;;;;;;10.50;3.20;;;13.80;99.90;;;;;;5012820;28;20049;-77
2023/10/12 12:52:57;;;;;;;11.35;2.90;;;13.70;99.90;;;;;;4996078;28;20541;-78
2023/10/12 12:55:27;;;;;;;12.75;3.17;;;13.70;99.90;;;;;;5012489;28;20090;-78
2023/10/12 12:57:59;;;;;;;12.85;3.40;;;13.80;99.90;;;;;;5012132;28;20070;-77
2023/10/12 13:00:25;;;;;;;8.70;2.85;;;13.70;99.90;;;;;;4996792;28;20092;-78
2023/10/12 13:02:50;;;;;;;10.27;2.83;;;13.70;99.90;;;;;;5012075;28;20046;-78
2023/10/12 13:05:16;;;;;;;7.97;2.55;;;13.70;99.90;;;;;;5011893;28;20060;-78
2023/10/12 13:07:46;;;;;;;10.85;2.90;;;13.70;99.90;;;;;;5012238;28;20038;-78
2023/10/12 13:10:12;;;;;;;11.82;3.13;;;13.70;99.90;;;;;;5011979;28;20512;-78
2023/10/12 13:12:41;;;;;;;11.27;3.20;;;13.70;99.90;;;;;;4996063;28;20037;-77
2023/10/12 13:15:09;;;;;;;7.60;2.58;;;13.60;99.90;;;;;;5012130;28;20045;-78
2023/10/12 13:17:37;;;;;;;13.02;3.03;;;13.60;99.90;;;;;;4978614;28;20042;-78
2023/10/12 13:20:03;;;;;;;12.18;3.15;;;13.50;99.90;;;;;;5012130;28;20057;-77
2023/10/12 13:22:29;;;;;;;10.63;3.40;;;13.50;99.90;;;;;;5012019;28;20038;-77
2023/10/12 13:24:58;;;;;;;13.55;3.88;;;13.50;99.90;;;;;;5012337;28;20049;-77
2023/10/12 13:27:27;;;;;;;12.40;4.00;;;13.50;99.90;;;;;;4995977;28;20076;-78
2023/10/12 13:30:00;;;;;;;68.60;51.42;;;13.40;99.90;;;;;;5001575;28;20045;-78
2023/10/12 13:32:26;;;;;;;57.42;42.13;;;13.40;99.90;;;;;;5012131;28;20113;-77
2023/10/12 13:34:57;;;;;;;27.80;14.50;;;13.40;99.90;;;;;;4995508;28;20116;-77
2023/10/12 13:37:30;;;;;;;26.45;19.67;;;13.40;99.90;;;;;;5011866;28;20172;-78
2023/10/12 13:39:56;;;;;;;;;;;13.40;99.90;;;;;;5011373;28;20046;-78
2023/10/12 13:42:23;;;;;;;21.38;12.32;;;13.40;99.90;;;;;;5011727;28;19917;-78
2023/10/12 13:44:50;;;;;;;18.65;8.25;;;13.40;99.90;;;;;;4995746;28;20041;-78
2023/10/12 13:47:16;;;;;;;17.10;10.90;;;13.40;99.90;;;;;;5012628;28;20056;-78
2023/10/12 13:49:42;;;;;;;15.55;7.13;;;13.30;99.90;;;;;;5012412;28;20037;-78
2023/10/12 13:52:12;;;;;;;19.02;9.52;;;13.20;99.90;;;;;;4979805;28;20049;-78
2023/10/12 13:54:42;;;;;;;16.25;10.82;;;13.20;99.90;;;;;;4995270;28;20121;-78
2023/10/12 13:57:08;;;;;;;21.02;11.80;;;13.10;99.90;;;;;;5011865;28;20053;-78
2023/10/12 13:59:36;;;;;;;17.60;7.15;;;13.10;99.90;;;;;;4994180;28;20056;-78
2023/10/12 14:02:05;;;;;;;16.13;7.25;;;13.10;99.90;;;;;;5012378;28;20041;-78
2023/10/12 14:04:33;;;;;;;18.60;8.35;;;13.00;99.90;;;;;;4979483;28;20041;-78
2023/10/12 14:07:02;;;;;;;14.30;7.75;;;13.00;99.90;;;;;;4979571;28;20054;-77
2023/10/12 14:09:30;;;;;;;15.95;5.90;;;13.00;99.90;;;;;;5007891;28;20081;-78
2023/10/12 14:11:57;;;;;;;18.15;7.32;;;12.90;99.90;;;;;;5011181;28;20037;-78
2023/10/12 14:14:25;;;;;;;13.70;5.05;;;12.90;99.90;;;;;;4994620;28;20129;-77
2023/10/12 14:16:51;;;;;;;14.70;4.60;;;12.90;99.90;;;;;;5010715;28;20048;-78
2023/10/12 14:19:22;;;;;;;19.05;12.13;;;12.90;99.90;;;;;;4994641;28;20129;-78
2023/10/12 14:21:58;;;;;;;17.02;11.63;;;12.90;99.90;;;;;;4980070;28;20046;-78
2023/10/12 14:24:24;;;;;;;17.35;6.65;;;12.80;99.90;;;;;;4995672;28;20413;-78
2023/10/12 14:26:51;;;;;;;14.85;5.13;;;12.80;99.90;;;;;;5011190;28;20042;-79
2023/10/12 14:29:18;;;;;;;12.38;5.80;;;12.80;99.90;;;;;;5010857;28;20042;-79
2023/10/12 14:31:45;;;;;;;14.50;4.72;;;12.70;99.90;;;;;;5011271;28;20048;-78
2023/10/12 14:34:13;;;;;;;10.88;4.55;;;12.70;99.90;;;;;;5011014;28;20038;-78
2023/10/12 14:36:40;;;;;;;13.52;4.75;;;12.70;99.90;;;;;;4995258;28;20045;-79
2023/10/12 14:39:13;;;;;;;20.25;12.40;;;12.70;99.90;;;;;;4978482;28;20044;-79
2023/10/12 14:41:39;;;;;;;34.80;23.42;;;12.70;99.90;;;;;;4994861;28;20448;-77
2023/10/12 14:44:05;;;;;;;18.55;7.50;;;12.70;99.90;;;;;;4975289;28;20129;-78
2023/10/12 14:46:31;;;;;;;14.93;5.20;;;12.80;99.90;;;;;;5011495;28;20101;-79
2023/10/12 14:48:58;;;;;;;14.68;4.85;;;12.80;99.90;;;;;;4975871;28;20516;-79
2023/10/12 14:51:29;;;;;;;17.45;5.35;;;12.80;99.90;;;;;;4995046;28;20042;-78
2023/10/12 14:53:56;;;;;;;16.15;5.82;;;12.80;99.90;;;;;;5010402;28;20066;-79
2023/10/12 14:56:29;;;;;;;13.38;5.10;;;12.70;99.90;;;;;;5008463;28;20038;-80
2023/10/12 14:58:56;;;;;;;13.70;5.40;;;12.80;99.90;;;;;;5010868;28;20048;-79
2023/10/12 15:01:27;;;;;;;12.60;4.82;;;12.80;99.90;;;;;;4990904;28;20054;-78
2023/10/12 15:03:57;;;;;;;17.80;6.05;;;12.80;99.90;;;;;;5010609;28;20048;-79
2023/10/12 15:06:23;;;;;;;14.57;5.40;;;12.80;99.90;;;;;;4994504;28;20038;-79